Taipak, Kazakhstan
Current Conditions -  °F | °C
As of 11:00 PM on Saturday 25 Oct 2014 (Local Time) from UATG Reporting Station
Haze Haze  
Wind Chill:   Ceiling: Unl
Heat Index: 19°   Visibility: 3mi
Dew Point: 14°   Wind: 13mph
Humidity: 80%   Direction: 340°NNW
Pressure: 30.42"   Gusts: NA
Location:  49.05°N, 51.87°E
Report Text: UATG 251900Z 34006MPS 5000 BR SCT033CB M07/M10 Q1030 R32/CLRD70NOSIG RMK QFE775/1033
Loading
Personal Weather Stations






























Interactive Weather Map
Tropical Storm Tracking
New forecast layout! Learn more

10-Day Weather Forecast

Advertisements
Track Severe Weather on mobile